createdAt,value
2023-01-20T00:04:21.420Z,47.50
2023-01-20T00:09:43.243Z,46.33
2023-01-20T00:15:06.760Z,49.63
2023-01-20T00:20:28.812Z,47.03
2023-01-20T00:25:50.614Z,46.10
2023-01-20T00:31:13.782Z,43.38
2023-01-20T00:36:35.675Z,46.00
2023-01-20T00:41:57.525Z,42.67
2023-01-20T00:47:19.389Z,43.42
2023-01-20T00:52:41.241Z,43.03
2023-01-20T00:58:03.077Z,43.67
2023-01-20T01:03:25.207Z,41.35
2023-01-20T01:08:47.082Z,40.13
2023-01-20T01:14:09.496Z,43.40
2023-01-20T01:19:31.363Z,44.28
2023-01-20T01:24:53.216Z,42.55
2023-01-20T01:30:15.163Z,45.60
2023-01-20T01:35:36.985Z,43.47
2023-01-20T01:40:58.955Z,44.80
2023-01-20T01:46:20.804Z,45.03
2023-01-20T01:52:05.791Z,47.92
2023-01-20T01:57:30.817Z,49.83
2023-01-20T02:02:53.133Z,49.40
2023-01-20T02:08:15.505Z,47.80
2023-01-20T02:13:37.614Z,49.13
2023-01-20T02:19:21.221Z,48.90
2023-01-20T02:24:48.760Z,41.58
2023-01-20T02:30:10.581Z,41.97
2023-01-20T02:35:46.352Z,41.00
2023-01-20T02:41:17.644Z,42.00
2023-01-20T02:46:55.009Z,44.28
2023-01-20T02:52:25.658Z,45.53
2023-01-20T02:57:53.265Z,40.97
2023-01-20T03:03:19.657Z,44.88
2023-01-20T03:14:08.861Z,43.90
2023-01-20T03:19:30.735Z,40.10
2023-01-20T03:24:53.057Z,43.33
2023-01-20T03:30:16.632Z,47.00
2023-01-20T03:35:39.651Z,44.78
2023-01-20T03:41:46.650Z,50.92
2023-01-20T03:47:45.672Z,55.47
2023-01-20T03:53:10.325Z,53.83
2023-01-20T03:58:39.638Z,52.22
2023-01-20T04:04:03.944Z,55.08
2023-01-20T04:09:31.732Z,53.97
2023-01-20T04:14:53.612Z,53.33
2023-01-20T04:20:16.171Z,57.60
2023-01-20T04:25:38.226Z,54.03
2023-01-20T04:31:00.213Z,52.40
2023-01-20T04:36:22.140Z,54.83
2023-01-20T04:41:43.980Z,51.45
2023-01-20T04:47:05.895Z,52.03
2023-01-20T04:52:27.794Z,56.08
2023-01-20T04:57:49.616Z,55.38
2023-01-20T05:03:11.528Z,52.40
2023-01-20T05:08:33.639Z,51.63
2023-01-20T05:13:55.459Z,46.53
2023-01-20T05:19:17.760Z,52.30
2023-01-20T05:24:39.609Z,55.67
2023-01-20T05:30:01.421Z,47.10
2023-01-20T05:35:23.349Z,46.15
2023-01-20T05:40:45.224Z,51.72
2023-01-20T05:46:07.390Z,48.75
2023-01-20T05:51:29.283Z,49.55
2023-01-20T05:56:51.130Z,48.53
2023-01-20T06:02:13.379Z,46.10
2023-01-20T06:07:35.226Z,51.42
2023-01-20T06:12:57.325Z,47.92
2023-01-20T06:18:23.374Z,49.22
2023-01-20T06:23:45.280Z,51.78
2023-01-20T06:29:07.147Z,47.25
2023-01-20T06:34:28.982Z,49.13
2023-01-20T06:39:50.787Z,45.40
2023-01-20T06:45:12.918Z,44.05
2023-01-20T06:50:34.873Z,46.20
2023-01-20T06:55:57.757Z,47.13
2023-01-20T07:01:25.813Z,55.60
2023-01-20T07:06:47.737Z,48.13
2023-01-20T07:12:09.571Z,44.08
2023-01-20T07:17:31.421Z,47.67
2023-01-20T07:22:53.255Z,44.08
2023-01-20T07:28:15.379Z,45.88
2023-01-20T07:33:37.979Z,46.97
2023-01-20T07:38:59.837Z,49.03
2023-01-20T07:44:21.736Z,45.35
2023-01-20T07:49:43.548Z,47.03
2023-01-20T07:55:05.691Z,49.13
2023-01-20T08:00:27.710Z,52.58
2023-01-20T08:05:49.599Z,49.90
2023-01-20T08:11:13.279Z,50.67
2023-01-20T08:16:35.175Z,51.40
2023-01-20T08:21:57.072Z,46.33
2023-01-20T08:27:19.234Z,55.90
2023-01-20T08:32:41.071Z,53.53
2023-01-20T08:38:03.186Z,51.05
2023-01-20T08:43:25.038Z,51.17
2023-01-20T08:48:48.381Z,47.40
2023-01-20T08:54:10.408Z,43.53
2023-01-20T08:59:32.277Z,41.58
2023-01-20T09:04:54.180Z,40.95
2023-01-20T09:10:16.134Z,41.42
2023-01-20T09:15:38.054Z,32.50
2023-01-20T09:21:00.814Z,36.50
2023-01-20T09:26:34.621Z,31.05
2023-01-20T09:31:57.431Z,28.17
2023-01-20T09:37:19.476Z,28.75
2023-01-20T09:43:03.865Z,35.25
2023-01-20T09:48:42.624Z,31.30
2023-01-20T09:54:14.591Z,35.50
2023-01-20T09:59:44.172Z,34.08
2023-01-20T10:05:16.347Z,32.53
2023-01-20T10:10:46.688Z,35.28
2023-01-20T10:16:11.977Z,40.08
2023-01-20T10:21:36.805Z,42.65
2023-01-20T10:27:02.160Z,37.38
2023-01-20T10:32:33.620Z,38.38
2023-01-20T10:37:56.423Z,39.88
2023-01-20T10:43:19.074Z,33.95
2023-01-20T10:48:49.651Z,31.95
2023-01-20T10:54:22.034Z,35.78
2023-01-20T10:59:51.316Z,29.08
2023-01-20T11:05:23.661Z,28.23
2023-01-20T11:10:49.374Z,30.17
2023-01-20T11:16:20.378Z,29.50
2023-01-20T11:21:42.355Z,29.63
2023-01-20T11:27:14.417Z,41.17
2023-01-20T11:32:38.399Z,31.02
2023-01-20T11:38:24.345Z,29.52
2023-01-20T11:43:46.255Z,27.40
2023-01-20T11:49:20.883Z,29.67
2023-01-20T11:54:42.769Z,34.35
2023-01-20T12:00:38.824Z,33.78
2023-01-20T12:11:29.279Z,36.80
2023-01-20T12:17:16.893Z,36.35
2023-01-20T12:22:48.134Z,36.45
2023-01-20T12:28:37.092Z,41.53
2023-01-20T12:34:11.282Z,36.97
2023-01-20T12:39:54.484Z,30.33
2023-01-20T12:45:28.451Z,27.73
2023-01-20T12:51:14.804Z,30.77
2023-01-20T12:56:57.990Z,24.38
2023-01-20T13:02:35.138Z,22.98
2023-01-20T13:08:15.217Z,19.25
2023-01-20T13:13:58.327Z,19.55
2023-01-20T13:19:29.772Z,17.70
2023-01-20T13:24:54.507Z,16.42
2023-01-20T13:30:38.048Z,17.20
2023-01-20T13:36:12.649Z,16.77
2023-01-20T13:41:53.307Z,21.50
2023-01-20T13:47:53.628Z,21.52
2023-01-20T13:53:21.513Z,20.00
2023-01-20T13:58:43.367Z,20.50
2023-01-20T14:04:07.607Z,19.80
2023-01-20T14:09:29.677Z,22.30
2023-01-20T14:14:52.009Z,23.45
2023-01-20T14:20:21.010Z,23.70
2023-01-20T14:25:42.897Z,19.90
2023-01-20T14:31:11.682Z,21.30
2023-01-20T14:36:33.815Z,19.55
2023-01-20T14:42:01.118Z,25.77
2023-01-20T14:47:26.165Z,22.73
2023-01-20T14:52:48.051Z,22.52
2023-01-20T14:58:15.772Z,26.20
2023-01-20T15:03:37.645Z,22.33
2023-01-20T15:09:06.697Z,25.00
2023-01-20T15:14:31.375Z,26.70
2023-01-20T15:19:53.201Z,28.58
2023-01-20T15:25:15.153Z,29.90
2023-01-20T15:30:36.996Z,26.20
2023-01-20T15:36:00.412Z,28.75
2023-01-20T15:41:22.415Z,27.00
2023-01-20T15:46:44.336Z,25.52
2023-01-20T15:52:10.162Z,24.23
2023-01-20T15:57:32.260Z,23.38
2023-01-20T16:02:54.144Z,21.33
2023-01-20T16:08:21.720Z,23.63
2023-01-20T16:13:43.684Z,25.38
2023-01-20T16:19:05.504Z,21.98
2023-01-20T16:24:27.343Z,20.70
2023-01-20T16:29:49.631Z,21.55
2023-01-20T16:35:15.435Z,21.15
2023-01-20T16:40:44.275Z,23.58
2023-01-20T16:46:06.142Z,23.60
2023-01-20T16:51:29.499Z,24.70
2023-01-20T16:56:51.359Z,26.77
2023-01-20T17:02:13.288Z,23.17
2023-01-20T17:07:35.205Z,21.85
2023-01-20T17:12:57.080Z,21.63
2023-01-20T17:18:19.090Z,21.40
2023-01-20T17:23:41.293Z,21.52
2023-01-20T17:29:04.950Z,19.38
2023-01-20T17:34:26.877Z,20.13
2023-01-20T17:39:48.733Z,17.30
2023-01-20T17:45:11.033Z,20.95
2023-01-20T17:50:32.886Z,18.63
2023-01-20T17:56:06.536Z,19.73
2023-01-20T18:01:33.680Z,16.75
2023-01-20T18:06:55.758Z,14.98
2023-01-20T18:12:17.665Z,19.52
2023-01-20T18:17:39.514Z,17.15
2023-01-20T18:23:01.464Z,17.00
2023-01-20T18:28:23.378Z,17.77
2023-01-20T18:33:47.775Z,17.42
2023-01-20T18:39:18.250Z,15.75
2023-01-20T18:44:40.095Z,16.83
2023-01-20T18:50:01.952Z,17.38
2023-01-20T18:55:23.833Z,16.65
2023-01-20T19:00:45.656Z,17.70
2023-01-20T19:06:10.004Z,13.27
2023-01-20T19:11:34.332Z,13.88
2023-01-20T19:16:56.198Z,12.93
2023-01-20T19:22:18.054Z,16.75
2023-01-20T19:27:39.917Z,15.50
2023-01-20T19:33:01.857Z,13.30
2023-01-20T19:38:23.803Z,11.68
2023-01-20T19:43:45.996Z,13.93
2023-01-20T19:49:07.964Z,12.48
2023-01-20T19:54:29.889Z,15.25
2023-01-20T19:59:51.748Z,14.25
2023-01-20T20:05:13.655Z,12.30
2023-01-20T20:10:41.396Z,13.75
2023-01-20T20:16:04.577Z,15.48
2023-01-20T20:21:26.802Z,9.82
2023-01-20T20:26:48.707Z,12.80
2023-01-20T20:32:10.541Z,11.02
2023-01-20T20:37:32.357Z,11.90
2023-01-20T20:42:56.335Z,10.60
2023-01-20T20:48:18.753Z,10.07
2023-01-20T20:53:41.294Z,13.38
2023-01-20T20:59:03.911Z,8.68
2023-01-20T21:04:25.966Z,10.45
2023-01-20T21:09:47.857Z,8.75
2023-01-20T21:15:10.333Z,10.10
2023-01-20T21:20:32.464Z,8.13
2023-01-20T21:26:00.173Z,11.32
2023-01-20T21:31:24.092Z,8.82
2023-01-20T21:36:46.009Z,13.10
2023-01-20T21:42:07.849Z,12.85
2023-01-20T21:47:29.669Z,11.23
2023-01-20T21:52:51.475Z,12.40
2023-01-20T21:58:13.306Z,12.25
2023-01-20T22:03:35.175Z,12.45
2023-01-20T22:08:57.030Z,11.30
2023-01-20T22:14:18.891Z,11.18
2023-01-20T22:19:40.942Z,13.63
2023-01-20T22:25:02.773Z,9.82
2023-01-20T22:30:24.700Z,11.10
2023-01-20T22:35:46.583Z,9.18
2023-01-20T22:41:09.247Z,9.90
2023-01-20T22:46:31.111Z,12.57
2023-01-20T22:51:54.202Z,11.48
2023-01-20T22:57:16.258Z,13.85
2023-01-20T23:02:38.111Z,10.65
2023-01-20T23:07:59.950Z,12.38
2023-01-20T23:13:22.021Z,15.80
2023-01-20T23:18:44.574Z,12.25
2023-01-20T23:24:06.548Z,14.35
2023-01-20T23:29:28.478Z,14.93
2023-01-20T23:34:50.318Z,14.45
2023-01-20T23:40:12.505Z,16.77
2023-01-20T23:45:34.408Z,16.92
2023-01-20T23:50:57.073Z,18.40
2023-01-20T23:56:21.347Z,17.65
